• Join FlightAware (Why Join?)
  • Login
  • US Flag 
Rudolph Flight #1: Arrived! 
08:46AM EST


 

Airport Tracker/Info


-or-


 

Live Flight TrackerFlight Track Log ✈ FLG4047 ✈ 04-May-2013 ✈ KTYS - KATL

Flight Track Log - Related Links

Times and Time Zones

All times are in EDT time to prevent confusion due to time zone crossing. See the FLG4047 flight status page for this flight to view local times or setup timezone preferences in your user account.

Time Position Orientation Groundspeed Altitude Reporting Facility
EDT Latitude Longitude Course Direction KTS MPH feet Rate Location/Type
04:24PM 35.8225 -83.9158 110° East 220 253 4,800  Level Atlanta Center
04:25PM 35.7619 -83.8878 159° South 235 270 7,700 2,580 Climbing Atlanta Center
04:26PM 35.5438 -84.0486 151° Southeast  Level Estimated
04:26PM 35.6953 -83.8469 154° Southeast 240 276 10,000  Level Atlanta Center
04:27PM 35.5098 -83.9459 112° Southeast  Level FlightAware Approximate
04:27PM 35.6242 -83.8114 158° South 260 299 12,600  Level Atlanta Center
04:28PM 35.4215 -83.9691 151° Southeast  Level Estimated
04:28PM 35.5511 -83.7836 163° South 273 314 14,900  Level Atlanta Center
04:29PM 35.3049 -83.9997 155° Southeast  Level Estimated
04:29PM 35.4678 -83.7889 183° South 281 323 16,000  Level Atlanta Center
04:30PM 35.2634 -83.8627 110° East  Level FlightAware Approximate
04:30PM 35.3758 -83.7942 183° South 309 356 16,900  Level Atlanta Center
04:31PM 35.2633 -83.7997 182° South 342 394 17,000  Climbing Atlanta Center
04:32PM 35.1631 -83.8025 181° South 360 414 17,000  Level Atlanta Center
04:33PM 35.0650 -83.8078 183° South 360 414 17,000  Level Atlanta Center
04:34PM 34.9711 -83.8106 181° South 360 414 17,000  Level Atlanta Center
04:35PM 34.8814 -83.8108 180° South 355 409 17,000  Level Atlanta Center
04:36PM 34.7853 -83.8161 183° South 350 403 17,000 -300 Level Atlanta Center
04:37PM 34.6872 -83.8189 181° South 350 403 16,500 -780 Descending Atlanta Center
04:38PM 34.5914 -83.8267 184° South 345 397 15,500 -1,080 Descending Atlanta Center
04:39PM 34.4994 -83.8422 188° South 345 397 14,400 -780 Descending Atlanta Center
04:40PM 34.3994 -83.8675 192° South 339 390 14,000 -240 Descending Atlanta Center
04:41PM 34.3097 -83.8956 194° South 333 383 14,000  Level Atlanta Center
04:42PM 34.2261 -83.9183 193° South 328 377 14,100  Climbing Atlanta Center
04:43PM 34.1406 -83.9433 194° South 316 364 14,000 -180 Descending Atlanta Center
04:44PM 34.1167 -83.9500 193° South 301 346 13,900 -900 Descending Atlanta TRACON
04:45PM 34.0500 -84.0167 220° Southwest 295 339 12,900 -960 Descending Atlanta TRACON
04:46PM 33.9833 -84.0833 220° Southwest 314 361 12,000 -480 Descending Atlanta TRACON
04:47PM 33.9167 -84.1667 226° Southwest 319 367 12,000  Level Atlanta TRACON
04:48PM 33.8667 -84.2167 220° Southwest 269 310 12,000  Level Atlanta TRACON
04:49PM 33.8000 -84.2833 220° Southwest 259 298 12,100 -540 Climbing Atlanta TRACON
04:50PM 33.7333 -84.3500 220° Southwest 264 304 10,900 -1,440 Descending Atlanta TRACON
04:51PM 33.7333 -84.4333 270° West 320 368 9,200 -1,800 Descending Atlanta TRACON
04:52PM 33.7333 -84.5333 270° West 299 344 7,500 -1,680 Descending Atlanta TRACON
04:53PM 33.7333 -84.6333 270° West 291 335 5,900 -1,260 Descending Atlanta TRACON
04:54PM 33.7333 -84.7333 270° West 280 322 5,000 -660 Descending Atlanta TRACON
04:55PM 33.7167 -84.8000 253° West 235 270 4,600 -480 Descending Atlanta TRACON
04:56PM 33.6667 -84.7833 164° South 207 238 4,100 -300 Descending Atlanta TRACON
04:57PM 33.6500 -84.7167 107° East 168 193 4,000 -60 Descending Atlanta TRACON
04:58PM 33.6500 -84.6667 90° East 169 194 4,000  Level Atlanta TRACON
04:59PM 33.6500 -84.6167 90° East 169 194 4,000 -540 Level Atlanta TRACON
05:00PM 33.6500 -84.5500 90° East 170 196 3,000 -900 Descending Atlanta TRACON
05:01PM 33.6500 -84.5000 90° East 139 160 2,200 -780 Descending Atlanta TRACON
05:02PM 33.6500 -84.4667 90° East 139 160 1,500 -720 Descending Atlanta TRACON